Local and Regional Airport Weather



KPVE - Beech River Regional Airport
Distance from station: NW 4mi, 6km
Updated: Thu, Feb-14-2019 12:55pm CST
NOT Current
Clear
Clear
 Wind from SSW
Wind: SSW 25 mph , 41 km/h, Gust: 32 mph , 52 km/h
Temperature: 59°F , 15°C
Dew Point: 30°F , -1°C
Humidity: 34%
Barometer: 29.80 inHg , 1009.1 hPa
Clouds: Clear
Visibility: 10 miles , 16 km
2019/02/14 18:55 KPVE 141855Z AUTO 21022G28KT 10SM CLR 15/M01 A2980 RMK A01
KSNH - Savannah Hardin Co. Airport
Distance from station: S 34mi, 54km
Updated: Tue, Feb-19-2019 9:15am CST
Mostly cloudy
Mostly cloudy
 Wind from NE
Wind: NE 3 mph , 6 km/h
Temperature: 36°F , 2°C
Dew Point: 27°F , -3°C
Humidity: 70%
Barometer: 30.44 inHg , 1030.8 hPa
Clouds: Mostly cloudy
Visibility: 10 miles , 16 km
Cloud details: Mostly cloudy 10000 ft
2019/02/19 15:15 KSNH 191515Z AUTO 04003KT 10SM BKN100 02/M03 A3044 RMK A01
 
KMKL - McKellar-Sipes Regional Airport
Distance from station: W 44mi, 72km
Updated: Tue, Feb-19-2019 8:53am CST
Clear
Clear
 Wind from E
Wind: E 14 mph , 22 km/h, Gust: 21 mph , 33 km/h
Temperature: 34°F , 1°C
Wind Chill: 25°F , -4°C
Dew Point: 25°F , -4°C
Humidity: 70%
Barometer: 30.43 inHg , 1030.5 hPa
Clouds: Clear
Visibility: 10 miles , 16 km
2019/02/19 14:53 KMKL 191453Z 08012G18KT 10SM CLR 01/M04 A3043 RMK AO2 SLP308 T00111044 58013 $
KMSL - NW Alabama Regional Airport
Distance from station: SE 78mi, 126km
Updated: Tue, Feb-19-2019 8:53am CST
Overcast
Overcast
 Wind from ENE
Wind: ENE 9 mph , 15 km/h
Temperature: 37°F , 3°C
Wind Chill: 30°F , -1°C
Dew Point: 27°F , -3°C
Humidity: 65%
Barometer: 30.44 inHg , 1030.8 hPa
Clouds: Overcast
Visibility: 10 miles , 16 km
Cloud details: Overcast 8500 ft
2019/02/19 14:53 KMSL 191453Z AUTO 07008KT 10SM OVC085 03/M03 A3044 RMK AO2 SLP311 T00281028 56001
 
KBNA - Nashville International Airport
Distance from station: NE 97mi, 157km
Updated: Tue, Feb-19-2019 8:53am CST
Overcast
Overcast
 Wind from ENE
Wind: ENE 13 mph , 20 km/h
Temperature: 36°F , 2°C
Wind Chill: 27°F , -3°C
Dew Point: 23°F , -5°C
Humidity: 60%
Barometer: 30.50 inHg , 1032.8 hPa
Clouds: Overcast
Visibility: 10 miles , 16 km
Cloud details: Mostly cloudy 16000 ft
Overcast 25000 ft
2019/02/19 14:53 KBNA 191453Z 06011KT 10SM BKN160 OVC250 02/M05 A3050 RMK AO2 SLP331 T00171050 58002
KMEM - Memphis International Airport
Distance from station: W 108mi, 173km
Updated: Tue, Feb-19-2019 8:54am CST
Overcast
Overcast
 Wind from ENE
Wind: ENE 10 mph , 17 km/h
Temperature: 36°F , 2°C
Wind Chill: 29°F , -2°C
Dew Point: 25°F , -4°C
Humidity: 65%
Barometer: 30.41 inHg , 1029.8 hPa
Clouds: Overcast
Visibility: 10 miles , 16 km
Cloud details: Partly cloudy 11000 ft
Mostly cloudy 15000 ft
Overcast 25000 ft
2019/02/19 14:54 KMEM 191454Z 07009KT 10SM SCT110 BKN150 OVC250 02/M04 A3041 RMK AO2 SLP301 T00221039 55004 $
 
KTYS - Knoxville McGhee Tyson Airport
Distance from station: E 234mi, 377km
Updated: Tue, Feb-19-2019 8:53am CST
Overcast
Overcast
 Wind from NE
Wind: NE 13 mph , 20 km/h
Temperature: 36°F , 2°C
Wind Chill: 27°F , -3°C
Dew Point: 27°F , -3°C
Humidity: 70%
Barometer: 30.49 inHg , 1032.5 hPa
Clouds: Overcast
Visibility: 10 miles , 16 km
Cloud details: Mostly cloudy 13000 ft
Overcast 25000 ft
2019/02/19 14:53 KTYS 191453Z 04011KT 10SM BKN130 OVC250 02/M03 A3049 RMK AO2 SLP331 T00171033 50008
KSTL - St. Louis International Airport
Distance from station: NW 247mi, 398km
Updated: Tue, Feb-19-2019 8:51am CST
Mostly cloudy
Mostly cloudy
 Wind from ESE
Wind: ESE 10 mph , 17 km/h
Temperature: 28°F , -2°C
Wind Chill: 19°F , -7°C
Dew Point: 19°F , -7°C
Humidity: 69%
Barometer: 30.58 inHg , 1035.6 hPa
Clouds: Mostly cloudy
Visibility: 10 miles , 16 km
Cloud details: Mostly cloudy 20000 ft
Mostly cloudy 25000 ft
2019/02/19 14:51 KSTL 191451Z 11009KT 10SM BKN200 BKN250 M02/M07 A3058 RMK AO2 SLP367 T10171067 53003

Refresh Page for latest data.